createdAt,value
2018-03-31T00:00:23.579Z,16.50
2018-03-31T00:02:49.721Z,15.30
2018-03-31T00:05:15.839Z,16.47
2018-03-31T00:07:42.574Z,15.20
2018-03-31T00:10:08.695Z,14.53
2018-03-31T00:12:34.820Z,14.90
2018-03-31T00:15:00.957Z,16.70
2018-03-31T00:17:27.075Z,14.17
2018-03-31T00:19:53.178Z,15.37
2018-03-31T00:22:24.253Z,15.00
2018-03-31T00:24:50.732Z,14.87
2018-03-31T00:27:16.832Z,17.43
2018-03-31T00:29:42.930Z,18.17
2018-03-31T00:32:09.074Z,15.20
2018-03-31T00:34:35.196Z,16.60
2018-03-31T00:37:01.307Z,15.70
2018-03-31T00:39:27.479Z,18.27
2018-03-31T00:41:53.565Z,17.03
2018-03-31T00:44:19.689Z,16.30
2018-03-31T00:46:45.963Z,17.60
2018-03-31T00:49:12.814Z,15.17
2018-03-31T00:51:39.625Z,15.27
2018-03-31T00:54:05.785Z,14.97
2018-03-31T00:56:32.669Z,16.13
2018-03-31T00:58:58.789Z,18.00
2018-03-31T01:01:24.914Z,16.40
2018-03-31T01:03:51.090Z,15.43
2018-03-31T01:06:17.199Z,14.70
2018-03-31T01:08:43.301Z,14.47
2018-03-31T01:11:09.429Z,15.70
2018-03-31T01:13:35.546Z,15.27
2018-03-31T01:16:01.671Z,15.60
2018-03-31T01:18:27.818Z,16.00
2018-03-31T01:20:53.958Z,16.70
2018-03-31T01:23:20.088Z,17.07
2018-03-31T01:25:46.252Z,15.70
2018-03-31T01:28:13.432Z,13.13
2018-03-31T01:30:39.534Z,15.70
2018-03-31T01:33:06.407Z,15.63
2018-03-31T01:35:32.547Z,13.97
2018-03-31T01:37:58.648Z,15.50
2018-03-31T01:40:24.877Z,16.40
2018-03-31T01:42:51.003Z,16.90
2018-03-31T01:45:17.094Z,14.80
2018-03-31T01:47:43.210Z,15.33
2018-03-31T01:50:09.283Z,15.57
2018-03-31T01:52:35.383Z,15.07
2018-03-31T01:55:02.293Z,17.13
2018-03-31T01:57:28.423Z,15.27
2018-03-31T01:59:55.455Z,15.10
2018-03-31T02:02:21.592Z,15.23
2018-03-31T02:04:47.699Z,14.87
2018-03-31T02:07:13.800Z,14.67
2018-03-31T02:09:39.960Z,16.83
2018-03-31T02:12:06.084Z,14.20
2018-03-31T02:14:32.876Z,14.23
2018-03-31T02:17:04.533Z,14.90
2018-03-31T02:19:30.742Z,14.83
2018-03-31T02:21:56.879Z,12.50
2018-03-31T02:24:23.057Z,14.27
2018-03-31T02:26:49.152Z,13.90
2018-03-31T02:29:16.001Z,14.90
2018-03-31T02:31:42.124Z,13.00
2018-03-31T02:34:08.987Z,14.83
2018-03-31T02:36:35.128Z,14.20
2018-03-31T02:39:01.259Z,14.30
2018-03-31T02:41:27.378Z,14.27
2018-03-31T02:43:53.514Z,14.30
2018-03-31T02:46:19.614Z,13.97
2018-03-31T02:48:45.721Z,13.27
2018-03-31T02:51:12.614Z,13.57
2018-03-31T02:53:38.768Z,13.67
2018-03-31T02:56:04.885Z,15.07
2018-03-31T02:58:31.007Z,14.30
2018-03-31T03:00:57.128Z,15.10
2018-03-31T03:03:23.526Z,15.60
2018-03-31T03:05:49.660Z,14.90
2018-03-31T03:08:15.789Z,15.10
2018-03-31T03:10:41.960Z,15.20
2018-03-31T03:13:08.075Z,15.47
2018-03-31T03:15:34.204Z,16.50
2018-03-31T03:18:00.326Z,15.93
2018-03-31T03:20:26.444Z,15.27
2018-03-31T03:22:52.560Z,17.10
2018-03-31T03:25:18.672Z,17.60
2018-03-31T03:27:45.143Z,17.67
2018-03-31T03:30:11.237Z,19.10
2018-03-31T03:32:37.367Z,16.80
2018-03-31T03:35:03.475Z,16.80
2018-03-31T03:37:29.608Z,18.67
2018-03-31T03:39:55.739Z,17.20
2018-03-31T03:42:21.883Z,17.40
2018-03-31T03:44:48.003Z,16.97
2018-03-31T03:47:14.109Z,18.60
2018-03-31T03:49:40.235Z,19.60
2018-03-31T03:52:06.336Z,18.63
2018-03-31T03:54:33.233Z,18.00
2018-03-31T03:56:59.367Z,19.80
2018-03-31T03:59:25.490Z,16.67
2018-03-31T04:01:51.617Z,19.00
2018-03-31T04:04:17.808Z,20.00
2018-03-31T04:06:43.927Z,18.73
2018-03-31T04:09:10.108Z,20.10
2018-03-31T04:11:36.228Z,19.33
2018-03-31T04:14:02.416Z,19.20
2018-03-31T04:16:28.615Z,19.50
2018-03-31T04:18:55.487Z,21.00
2018-03-31T04:21:21.615Z,21.20
2018-03-31T04:23:47.742Z,20.63
2018-03-31T04:26:13.890Z,18.83
2018-03-31T04:28:40.004Z,18.13
2018-03-31T04:31:06.471Z,19.30
2018-03-31T04:33:32.616Z,21.77
2018-03-31T04:35:58.777Z,20.30
2018-03-31T04:38:24.934Z,22.17
2018-03-31T04:40:51.033Z,22.60
2018-03-31T04:43:17.251Z,22.13
2018-03-31T04:45:44.125Z,22.20
2018-03-31T04:48:10.257Z,22.90
2018-03-31T04:50:36.363Z,22.87
2018-03-31T04:53:02.517Z,22.80
2018-03-31T04:55:29.401Z,24.10
2018-03-31T04:57:56.373Z,25.93
2018-03-31T05:00:22.529Z,25.30
2018-03-31T05:02:48.685Z,24.97
2018-03-31T05:05:14.843Z,23.87
2018-03-31T05:07:41.152Z,24.73
2018-03-31T05:10:07.275Z,23.37
2018-03-31T05:12:34.115Z,25.13
2018-03-31T05:15:00.242Z,24.83
2018-03-31T05:17:26.366Z,24.90
2018-03-31T05:19:52.552Z,24.40
2018-03-31T05:22:18.634Z,24.67
2018-03-31T05:24:44.846Z,25.10
2018-03-31T05:27:10.985Z,26.70
2018-03-31T05:29:37.276Z,26.10
2018-03-31T05:32:03.412Z,26.23
2018-03-31T05:34:29.517Z,25.47
2018-03-31T05:36:55.642Z,24.37
2018-03-31T05:39:21.763Z,25.53
2018-03-31T05:41:47.900Z,27.80
2018-03-31T05:44:14.006Z,25.57
2018-03-31T05:46:40.146Z,28.10
2018-03-31T05:49:06.309Z,25.90
2018-03-31T05:51:32.534Z,27.07
2018-03-31T05:53:58.670Z,26.60
2018-03-31T05:56:24.836Z,26.80
2018-03-31T05:58:50.929Z,26.40
2018-03-31T06:01:17.049Z,25.90
2018-03-31T06:03:43.214Z,27.10
2018-03-31T06:06:09.368Z,27.40
2018-03-31T06:08:35.491Z,29.33
2018-03-31T06:11:01.585Z,27.97
2018-03-31T06:13:28.511Z,26.90
2018-03-31T06:15:54.659Z,26.20
2018-03-31T06:18:21.627Z,26.43
2018-03-31T06:20:47.745Z,25.93
2018-03-31T06:23:13.916Z,27.53
2018-03-31T06:25:40.041Z,28.87
2018-03-31T06:28:06.303Z,27.37
2018-03-31T06:30:33.205Z,28.10
2018-03-31T06:32:59.379Z,28.13
2018-03-31T06:35:26.207Z,29.10
2018-03-31T06:37:52.348Z,27.63
2018-03-31T06:40:19.252Z,27.10
2018-03-31T06:42:45.396Z,27.50
2018-03-31T06:45:11.504Z,26.10
2018-03-31T06:47:37.624Z,25.00
2018-03-31T06:50:03.720Z,26.70
2018-03-31T06:52:29.855Z,28.33
2018-03-31T06:54:56.012Z,28.23
2018-03-31T06:57:22.154Z,27.70
2018-03-31T06:59:48.294Z,28.70
2018-03-31T07:02:14.464Z,28.07
2018-03-31T07:04:40.555Z,28.27
2018-03-31T07:07:06.706Z,26.07
2018-03-31T07:09:32.807Z,26.70
2018-03-31T07:11:59.729Z,29.00
2018-03-31T07:14:25.838Z,28.30
2018-03-31T07:16:52.000Z,28.93
2018-03-31T07:19:18.105Z,28.83
2018-03-31T07:21:44.249Z,29.70
2018-03-31T07:24:10.396Z,28.40
2018-03-31T07:26:37.288Z,29.03
2018-03-31T07:29:03.509Z,28.67
2018-03-31T07:31:29.710Z,27.23
2018-03-31T07:33:55.863Z,28.10
2018-03-31T07:36:22.007Z,30.80
2018-03-31T07:38:48.151Z,27.07
2018-03-31T07:41:14.291Z,32.63
2018-03-31T07:43:41.223Z,31.70
2018-03-31T07:46:07.391Z,30.10
2018-03-31T07:48:33.588Z,28.50
2018-03-31T07:51:00.445Z,29.00
2018-03-31T07:53:27.369Z,30.73
2018-03-31T07:55:53.515Z,28.77
2018-03-31T07:58:19.636Z,29.47
2018-03-31T08:00:45.732Z,32.63
2018-03-31T08:03:11.894Z,30.57
2018-03-31T08:05:38.552Z,29.40
2018-03-31T08:08:05.236Z,28.53
2018-03-31T08:10:31.369Z,29.17
2018-03-31T08:12:57.528Z,32.00
2018-03-31T08:15:23.924Z,30.60
2018-03-31T08:17:50.040Z,30.37
2018-03-31T08:20:16.255Z,29.67
2018-03-31T08:22:42.418Z,29.80
2018-03-31T08:25:08.525Z,31.10
2018-03-31T08:27:34.673Z,29.33
2018-03-31T08:30:00.832Z,28.27
2018-03-31T08:32:27.195Z,31.73
2018-03-31T08:34:53.358Z,30.03
2018-03-31T08:37:19.519Z,29.20
2018-03-31T08:39:45.689Z,28.20
2018-03-31T08:42:11.904Z,30.03
2018-03-31T08:44:38.029Z,31.20
2018-03-31T08:47:04.210Z,30.07
2018-03-31T08:49:30.327Z,30.67
2018-03-31T08:51:56.417Z,30.33
2018-03-31T08:54:22.528Z,29.10
2018-03-31T08:56:48.659Z,33.83
2018-03-31T08:59:14.819Z,30.70
2018-03-31T09:01:40.977Z,31.17
2018-03-31T09:04:07.819Z,31.53
2018-03-31T09:06:34.665Z,29.83
2018-03-31T09:09:00.811Z,28.90
2018-03-31T09:11:26.941Z,29.80
2018-03-31T09:13:53.824Z,28.00
2018-03-31T09:16:19.986Z,30.27
2018-03-31T09:18:46.094Z,30.43
2018-03-31T09:21:12.204Z,29.60
2018-03-31T09:23:38.288Z,29.53
2018-03-31T09:26:04.427Z,29.33
2018-03-31T09:28:30.581Z,27.73
2018-03-31T09:30:56.750Z,29.17
2018-03-31T09:33:23.606Z,31.30
2018-03-31T09:35:49.742Z,27.17
2018-03-31T09:38:15.890Z,28.10
2018-03-31T09:40:42.052Z,29.00
2018-03-31T09:43:08.167Z,28.83
2018-03-31T09:45:34.326Z,31.27
2018-03-31T09:48:01.217Z,27.53
2018-03-31T09:50:27.482Z,33.53
2018-03-31T09:52:53.642Z,34.97
2018-03-31T09:55:19.809Z,34.83
2018-03-31T09:57:46.483Z,35.43
2018-03-31T10:00:12.609Z,34.07
2018-03-31T10:02:38.761Z,35.53
2018-03-31T10:05:04.892Z,32.80
2018-03-31T10:07:31.081Z,34.50
2018-03-31T10:09:57.211Z,32.80
2018-03-31T10:12:23.334Z,32.30
2018-03-31T10:14:49.439Z,33.33
2018-03-31T10:17:15.619Z,33.13
2018-03-31T10:19:41.742Z,32.50
2018-03-31T10:22:08.620Z,32.47
2018-03-31T10:24:34.725Z,32.50
2018-03-31T10:27:00.861Z,34.30
2018-03-31T10:29:26.963Z,34.40
2018-03-31T10:31:53.841Z,34.23
2018-03-31T10:34:19.951Z,35.77
2018-03-31T10:36:46.039Z,36.30
2018-03-31T10:39:12.200Z,32.53
2018-03-31T10:41:38.311Z,34.70
2018-03-31T10:44:05.187Z,36.83
2018-03-31T10:46:31.353Z,36.60
2018-03-31T10:48:57.548Z,34.97
2018-03-31T10:51:23.656Z,37.30
2018-03-31T10:53:49.764Z,36.67
2018-03-31T10:56:17.570Z,39.33
2018-03-31T10:58:43.678Z,34.27
2018-03-31T11:01:09.812Z,34.57
2018-03-31T11:03:35.972Z,34.60
2018-03-31T11:06:02.258Z,34.03
2018-03-31T11:08:29.308Z,32.50
2018-03-31T11:10:56.703Z,34.23
2018-03-31T11:13:22.783Z,35.17
2018-03-31T11:15:48.908Z,35.13
2018-03-31T11:18:15.035Z,34.10
2018-03-31T11:20:41.161Z,37.17
2018-03-31T11:23:08.027Z,37.03
2018-03-31T11:25:35.145Z,35.70
2018-03-31T11:28:02.020Z,35.97
2018-03-31T11:30:28.425Z,37.80
2018-03-31T11:32:54.531Z,38.80
2018-03-31T11:35:20.654Z,40.17
2018-03-31T11:37:46.828Z,39.10
2018-03-31T11:40:12.996Z,39.43
2018-03-31T11:42:39.138Z,37.60
2018-03-31T11:45:06.017Z,38.50
2018-03-31T11:47:32.150Z,39.33
2018-03-31T11:49:58.266Z,38.10
2018-03-31T11:52:24.423Z,39.70
2018-03-31T11:54:50.508Z,38.67
2018-03-31T11:57:17.409Z,42.23
2018-03-31T11:59:43.552Z,39.10
2018-03-31T12:02:10.473Z,39.57
2018-03-31T12:04:36.558Z,40.70
2018-03-31T12:07:03.467Z,39.10
2018-03-31T12:09:29.634Z,42.00
2018-03-31T12:11:55.753Z,40.33
2018-03-31T12:14:21.899Z,41.87
2018-03-31T12:16:47.999Z,41.17
2018-03-31T12:19:15.527Z,40.47
2018-03-31T12:21:41.595Z,42.27
2018-03-31T12:24:07.710Z,39.50
2018-03-31T12:26:34.597Z,44.07
2018-03-31T12:29:00.717Z,41.63
2018-03-31T12:31:27.626Z,42.10
2018-03-31T12:33:53.726Z,38.90
2018-03-31T12:36:19.861Z,37.57
2018-03-31T12:38:47.036Z,37.10
2018-03-31T12:41:13.125Z,34.20
2018-03-31T12:43:39.306Z,32.03
2018-03-31T12:46:05.432Z,31.43
2018-03-31T12:48:31.526Z,31.27
2018-03-31T12:50:58.379Z,29.43
2018-03-31T12:53:24.532Z,29.23
2018-03-31T12:55:50.664Z,30.30
2018-03-31T12:58:16.785Z,27.50
2018-03-31T13:00:42.897Z,29.93
2018-03-31T13:03:09.018Z,29.00
2018-03-31T13:05:35.163Z,29.00
2018-03-31T13:08:01.307Z,31.13
2018-03-31T13:10:27.480Z,27.47
2018-03-31T13:12:54.335Z,28.37
2018-03-31T13:15:21.276Z,29.33
2018-03-31T13:17:47.310Z,28.60
2018-03-31T13:20:13.555Z,32.97
2018-03-31T13:22:39.723Z,30.93
2018-03-31T13:25:06.786Z,33.50
2018-03-31T13:27:33.827Z,35.40
2018-03-31T13:29:59.916Z,33.57
2018-03-31T13:32:26.952Z,34.23
2018-03-31T13:34:53.124Z,38.00
2018-03-31T13:37:19.252Z,35.90
2018-03-31T13:39:45.370Z,39.60
2018-03-31T13:42:11.522Z,36.87
2018-03-31T13:44:38.422Z,33.90
2018-03-31T13:47:04.490Z,35.13
2018-03-31T13:49:30.602Z,31.70
2018-03-31T13:51:56.731Z,31.50
2018-03-31T13:54:22.923Z,30.70
2018-03-31T13:56:49.089Z,26.87
2018-03-31T13:59:15.201Z,28.30
2018-03-31T14:01:41.485Z,26.30
2018-03-31T14:04:07.677Z,24.57
2018-03-31T14:06:33.805Z,26.50
2018-03-31T14:08:59.931Z,26.00
2018-03-31T14:11:26.060Z,25.37
2018-03-31T14:13:52.188Z,24.30
2018-03-31T14:16:19.063Z,24.10
2018-03-31T14:18:45.159Z,22.37
2018-03-31T14:21:11.310Z,23.17
2018-03-31T14:23:37.419Z,21.67
2018-03-31T14:26:04.293Z,21.40
2018-03-31T14:28:30.459Z,23.50
2018-03-31T14:30:56.627Z,22.30
2018-03-31T14:33:22.742Z,21.67
2018-03-31T14:35:50.681Z,22.80
2018-03-31T14:38:16.932Z,22.67
2018-03-31T14:40:43.050Z,24.80
2018-03-31T14:43:09.276Z,22.93
2018-03-31T14:45:35.408Z,25.13
2018-03-31T14:48:02.290Z,26.63
2018-03-31T14:50:28.387Z,27.50
2018-03-31T14:52:55.211Z,32.67
2018-03-31T14:55:21.335Z,35.00
2018-03-31T14:57:47.466Z,32.80
2018-03-31T15:00:13.584Z,33.63
2018-03-31T15:02:39.712Z,33.80
2018-03-31T15:05:05.845Z,32.10
2018-03-31T15:07:31.985Z,33.93
2018-03-31T15:09:58.176Z,32.40
2018-03-31T15:12:24.301Z,34.30
2018-03-31T15:14:50.417Z,33.37
2018-03-31T15:17:16.513Z,34.27
2018-03-31T15:19:43.431Z,35.00
2018-03-31T15:22:09.534Z,33.47
2018-03-31T15:24:36.695Z,32.30
2018-03-31T15:27:03.120Z,33.73
2018-03-31T15:29:29.267Z,31.33
2018-03-31T15:31:55.415Z,33.80
2018-03-31T15:34:22.299Z,33.83
2018-03-31T15:36:48.436Z,34.30
2018-03-31T15:39:14.568Z,34.87
2018-03-31T15:41:40.706Z,37.00
2018-03-31T15:44:07.264Z,35.83
2018-03-31T15:46:34.150Z,36.07
2018-03-31T15:49:00.328Z,36.63
2018-03-31T15:51:26.429Z,37.00
2018-03-31T15:53:52.646Z,42.27
2018-03-31T15:56:18.794Z,42.10
2018-03-31T15:58:45.105Z,40.30
2018-03-31T16:01:11.236Z,37.20
2018-03-31T16:03:37.344Z,33.70
2018-03-31T16:06:03.480Z,31.77
2018-03-31T16:08:29.639Z,30.17
2018-03-31T16:10:55.768Z,30.70
2018-03-31T16:13:21.916Z,31.77
2018-03-31T16:15:48.764Z,29.47
2018-03-31T16:18:14.963Z,29.63
2018-03-31T16:20:41.056Z,30.13
2018-03-31T16:23:07.148Z,31.17
2018-03-31T16:25:34.057Z,31.27
2018-03-31T16:28:00.271Z,31.50
2018-03-31T16:30:27.185Z,31.33
2018-03-31T16:32:53.563Z,32.60
2018-03-31T16:35:19.689Z,30.03
2018-03-31T16:37:45.915Z,32.20
2018-03-31T16:40:12.110Z,29.50
2018-03-31T16:42:38.225Z,31.50
2018-03-31T16:45:04.360Z,30.50
2018-03-31T16:47:30.491Z,32.10
2018-03-31T16:49:56.654Z,34.07
2018-03-31T16:52:22.798Z,29.80
2018-03-31T16:54:48.899Z,31.93
2018-03-31T16:57:15.095Z,34.23
2018-03-31T16:59:41.249Z,31.87
2018-03-31T17:02:07.365Z,34.80
2018-03-31T17:04:33.534Z,36.37
2018-03-31T17:07:00.476Z,38.50
2018-03-31T17:09:26.594Z,36.27
2018-03-31T17:11:52.980Z,35.13
2018-03-31T17:14:19.133Z,35.10
2018-03-31T17:16:45.356Z,33.40
2018-03-31T17:19:11.483Z,32.50
2018-03-31T17:21:37.618Z,30.57
2018-03-31T17:24:03.810Z,31.30
2018-03-31T17:26:29.992Z,29.77
2018-03-31T17:28:56.178Z,31.23
2018-03-31T17:31:22.515Z,31.70
2018-03-31T17:33:48.660Z,30.40
2018-03-31T17:36:14.805Z,29.33
2018-03-31T17:38:40.929Z,32.90
2018-03-31T17:41:07.028Z,35.17
2018-03-31T17:43:33.146Z,33.57
2018-03-31T17:45:59.270Z,33.53
2018-03-31T17:48:25.478Z,35.00
2018-03-31T17:50:51.675Z,35.77
2018-03-31T17:53:18.591Z,34.07
2018-03-31T17:55:44.712Z,36.83
2018-03-31T17:58:11.603Z,35.43
2018-03-31T18:00:38.504Z,36.33
2018-03-31T18:03:04.677Z,34.33
2018-03-31T18:05:31.586Z,35.90
2018-03-31T18:07:57.732Z,34.03
2018-03-31T18:10:24.620Z,37.70
2018-03-31T18:12:50.736Z,36.57
2018-03-31T18:15:16.944Z,33.90
2018-03-31T18:17:43.122Z,37.93
2018-03-31T18:20:09.419Z,36.80
2018-03-31T18:22:35.605Z,38.40
2018-03-31T18:25:01.716Z,38.63
2018-03-31T18:27:27.882Z,39.10
2018-03-31T18:29:54.787Z,38.67
2018-03-31T18:32:21.117Z,38.73
2018-03-31T18:34:47.264Z,38.00
2018-03-31T18:37:13.396Z,37.00
2018-03-31T18:39:39.508Z,37.80
2018-03-31T18:42:05.643Z,39.30
2018-03-31T18:44:31.802Z,42.10
2018-03-31T18:46:57.956Z,51.97
2018-03-31T18:49:24.113Z,44.80
2018-03-31T18:51:50.239Z,50.73
2018-03-31T18:54:16.392Z,51.07
2018-03-31T18:56:43.276Z,50.67
2018-03-31T18:59:09.429Z,47.40
2018-03-31T19:01:35.553Z,47.80
2018-03-31T19:04:02.509Z,43.30
2018-03-31T19:06:28.606Z,45.40
2018-03-31T19:08:54.736Z,44.63
2018-03-31T19:11:20.879Z,46.07
2018-03-31T19:13:47.058Z,38.50
2018-03-31T19:16:13.935Z,40.30
2018-03-31T19:18:40.154Z,41.27
2018-03-31T19:21:06.307Z,38.70
2018-03-31T19:23:32.441Z,39.40
2018-03-31T19:25:58.607Z,39.70
2018-03-31T19:28:25.468Z,39.43
2018-03-31T19:30:51.593Z,39.30
2018-03-31T19:33:17.770Z,34.30
2018-03-31T19:35:50.160Z,35.43
2018-03-31T19:38:16.458Z,32.03
2018-03-31T19:40:42.553Z,36.33
2018-03-31T19:43:08.657Z,33.50
2018-03-31T19:45:35.623Z,34.03
2018-03-31T19:48:01.735Z,37.53
2018-03-31T19:50:28.714Z,32.93
2018-03-31T19:52:54.811Z,33.03
2018-03-31T19:55:20.915Z,35.53
2018-03-31T19:57:47.833Z,33.37
2018-03-31T20:00:14.078Z,33.13
2018-03-31T20:02:40.192Z,35.73
2018-03-31T20:05:06.334Z,34.60
2018-03-31T20:07:32.604Z,33.10
2018-03-31T20:09:58.692Z,30.17
2018-03-31T20:12:24.875Z,30.10
2018-03-31T20:14:51.000Z,28.20
2018-03-31T20:17:17.134Z,29.33
2018-03-31T20:19:43.265Z,28.10
2018-03-31T20:22:09.457Z,29.17
2018-03-31T20:24:36.610Z,27.40
2018-03-31T20:27:02.756Z,27.47
2018-03-31T20:29:28.893Z,28.97
2018-03-31T20:31:54.998Z,26.27
2018-03-31T20:34:21.187Z,28.07
2018-03-31T20:36:47.337Z,29.23
2018-03-31T20:39:14.179Z,28.67
2018-03-31T20:41:41.021Z,27.73
2018-03-31T20:44:07.863Z,27.00
2018-03-31T20:46:34.707Z,25.27
2018-03-31T20:49:01.544Z,26.07
2018-03-31T20:51:28.427Z,26.30
2018-03-31T20:53:54.530Z,26.30
2018-03-31T20:56:20.656Z,29.30
2018-03-31T20:58:47.520Z,26.37
2018-03-31T21:01:14.000Z,28.20
2018-03-31T21:03:40.130Z,26.40
2018-03-31T21:06:06.256Z,27.37
2018-03-31T21:08:33.111Z,25.43
2018-03-31T21:10:59.968Z,25.57
2018-03-31T21:13:26.817Z,26.37
2018-03-31T21:15:52.939Z,29.13
2018-03-31T21:18:20.196Z,28.83
2018-03-31T21:20:46.319Z,28.20
2018-03-31T21:23:12.438Z,28.83
2018-03-31T21:25:39.377Z,27.83
2018-03-31T21:28:06.227Z,28.87
2018-03-31T21:30:33.116Z,29.10
2018-03-31T21:32:59.216Z,26.47
2018-03-31T21:35:25.331Z,30.03
2018-03-31T21:37:51.478Z,28.00
2018-03-31T21:40:17.640Z,26.67
2018-03-31T21:42:43.830Z,28.30
2018-03-31T21:45:10.019Z,28.20
2018-03-31T21:47:36.862Z,28.27
2018-03-31T21:50:02.998Z,26.70
2018-03-31T21:52:29.840Z,25.20
2018-03-31T21:54:56.734Z,24.03
2018-03-31T21:57:22.917Z,24.93
2018-03-31T21:59:49.767Z,22.93
2018-03-31T22:02:16.660Z,20.83
2018-03-31T22:04:43.546Z,20.00
2018-03-31T22:07:10.465Z,21.63
2018-03-31T22:09:36.576Z,19.30
2018-03-31T22:12:02.710Z,18.63
2018-03-31T22:14:35.182Z,17.67
2018-03-31T22:17:01.303Z,20.10
2018-03-31T22:19:27.446Z,17.70
2018-03-31T22:21:53.637Z,16.90
2018-03-31T22:24:19.914Z,18.27
2018-03-31T22:26:46.051Z,18.10
2018-03-31T22:29:12.912Z,17.30
2018-03-31T22:31:39.010Z,18.90
2018-03-31T22:34:05.132Z,17.50
2018-03-31T22:36:31.251Z,18.23
2018-03-31T22:38:57.393Z,18.70
2018-03-31T22:41:23.607Z,21.60
2018-03-31T22:43:49.835Z,19.53
2018-03-31T22:46:15.965Z,21.07
2018-03-31T22:48:42.130Z,19.03
2018-03-31T22:51:09.003Z,19.50
2018-03-31T22:53:35.198Z,19.50
2018-03-31T22:56:01.319Z,20.20
2018-03-31T22:58:28.168Z,19.90
2018-03-31T23:00:55.042Z,20.10
2018-03-31T23:03:21.179Z,20.10
2018-03-31T23:05:47.320Z,21.70
2018-03-31T23:08:13.584Z,20.37
2018-03-31T23:10:39.669Z,20.10
2018-03-31T23:13:05.808Z,18.73
2018-03-31T23:15:31.957Z,19.77
2018-03-31T23:17:58.838Z,18.07
2018-03-31T23:20:25.496Z,17.70
2018-03-31T23:22:51.644Z,16.97
2018-03-31T23:25:17.762Z,17.70
2018-03-31T23:27:43.895Z,17.43
2018-03-31T23:30:10.043Z,17.53
2018-03-31T23:32:36.969Z,18.10
2018-03-31T23:35:03.396Z,17.77
2018-03-31T23:37:29.630Z,18.20
2018-03-31T23:39:55.761Z,18.60
2018-03-31T23:42:21.867Z,16.53
2018-03-31T23:44:47.977Z,13.93
2018-03-31T23:47:14.118Z,14.83
2018-03-31T23:49:40.216Z,11.80
2018-03-31T23:52:06.336Z,9.67
2018-03-31T23:54:32.461Z,10.07
2018-03-31T23:56:58.749Z,10.57
2018-03-31T23:59:24.883Z,10.97
